KC3FKS-2 Weather Reports


Display with metric or nautical units.
time (UTC)temp
F
wind
direction
speed
MPH
gust
MPH
rain 1hr
in
rain 24hr
in
rain mn
in
humidity
%
barometer
mb
20180619135126 87 249 1.0 0.0 0.00 0.00 0.00
20180619134626 87 326 3.0 5.0 0.00 0.00 0.00
20180619134125 87 321 3.0 4.0 0.00 0.00 0.00
20180619133120 87 304 3.0 4.0 0.00 0.00 0.00
20180619132652 86 352 3.0 4.0 0.00 0.00 0.00
20180619132619 86 352 3.0 4.0 0.00 0.00 0.00
20180619132119 86 359 2.0 3.0 0.00 0.00 0.00
20180619131618 86 297 4.0 5.0 0.00 0.00 0.00
20180619131115 86 353 5.0 5.0 0.00 0.00 0.00
20180619130615 85 280 4.0 3.0 0.00 0.00 0.00
20180619130147 85 312 4.0 5.0 0.00 0.00 0.00
20180619130115 85 312 4.0 5.0 0.00 0.00 0.00
20180619125615 85 298 4.0 3.0 0.00 0.00 0.00
20180619125156 85 298 5.0 6.0 0.00 0.00 0.00
20180619125112 85 298 5.0 6.0 0.00 0.00 0.00
20180619124611 85 267 3.0 1.0 0.00 0.00 0.00
20180619123108 84 325 2.0 2.0 0.00 0.00 0.00
20180619121607 83 288 1.0 2.0 0.00 0.00 0.00
20180619121200 82 336 2.0 2.0 0.00 0.00 0.00
20180619121104 82 336 2.0 2.0 0.00 0.00 0.00
20180619120103 82 283 1.0 0.0 0.00 0.00 0.00
20180619115603 81 287 3.0 2.0 0.00 0.00 0.00
20180619115100 81 281 0.0 0.0 0.00 0.00 0.00
20180619112555 81 274 1.0 2.0 0.00 0.00 0.00
20180619112055 80 287 1.0 2.0 0.00 0.00 0.00
20180619111555 80 323 2.0 2.0 0.00 0.00 0.00
20180619111052 81 281 0.0 0.0 0.00 0.00 0.00
20180619110551 80 281 0.0 0.0 0.00 0.00 0.00
20180619110051 80 252 0.0 0.0 0.00 0.00 0.00
20180619105048 79 252 0.0 0.0 0.00 0.00 0.00
20180619104623 79 252 0.0 0.0 0.00 0.00 0.00
20180619104548 79 252 0.0 0.0 0.00 0.00 0.00
20180619104048 79 252 0.0 0.0 0.00 0.00 0.00
20180619103547 79 252 0.0 0.0 0.00 0.00 0.00
20180619102541 78 252 0.0 0.0 0.00 0.00 0.00
20180619101618 78 252 0.0 0.0 0.00 0.00 0.00
20180619101541 78 252 0.0 0.0 0.00 0.00 0.00
20180619100537 77 252 0.0 0.0 0.00 0.00 0.00
20180619095609 77 252 0.0 0.0 0.00 0.00 0.00
20180619095537 77 252 0.0 0.0 0.00 0.00 0.00
20180619095034 77 252 0.0 0.0 0.00 0.00 0.00
20180619094538 77 252 0.0 0.0 0.00 0.00 0.00
20180619094033 76 252 0.0 0.0 0.00 0.00 0.00
20180619093533 76 252 0.0 0.0 0.00 0.00 0.00
20180619093029 77 252 0.0 0.0 0.00 0.00 0.00
20180619091142 77 252 0.0 0.0 0.00 0.00 0.00
20180619091025 77 252 0.0 0.0 0.00 0.00 0.00
20180619090525 77 252 0.0 0.0 0.00 0.00 0.00
20180619085139 77 252 0.0 0.0 0.00 0.00 0.00
20180619085107 77 252 0.0 0.0 0.00 0.00 0.00
20180619085022 77 252 0.0 0.0 0.00 0.00 0.00
20180619084521 77 252 0.0 0.0 0.00 0.00 0.00
20180619083647 77 252 0.0 0.0 0.00 0.00 0.00
20180619083519 77 252 0.0 0.0 0.00 0.00 0.00
20180619082729 77 252 0.0 0.0 0.00 0.00 0.00
20180619082516 77 252 0.0 0.0 0.00 0.00 0.00
20180619081516 77 252 0.0 0.0 0.00 0.00 0.00
20180619081013 77 252 0.0 0.0 0.00 0.00 0.00
20180619080513 77 252 0.0 0.0 0.00 0.00 0.00
20180619080012 77 252 0.0 0.0 0.00 0.00 0.00
20180619074742 77 252 0.0 0.0 0.00 0.00 0.00
20180619074510 77 252 0.0 0.0 0.00 0.00 0.00
20180619073727 77 252 0.0 0.0 0.00 0.00 0.00
20180619073509 77 252 0.0 0.0 0.00 0.00 0.00
20180619073006 77 252 0.0 0.0 0.00 0.00 0.00
20180619072627 77 252 0.0 0.0 0.00 0.00 0.00
20180619072506 77 252 0.0 0.0 0.00 0.00 0.00
20180619071506 78 252 0.0 0.0 0.00 0.00 0.00
20180619071003 78 252 0.0 0.0 0.00 0.00 0.00
20180619070000 78 252 0.0 0.0 0.00 0.00 0.00
20180619065500 78 252 0.0 0.0 0.00 0.00 0.00
20180619064957 78 252 0.0 0.0 0.00 0.00 0.00
20180619064747 78 252 0.0 0.0 0.00 0.00 0.00
20180619064457 78 252 0.0 0.0 0.00 0.00 0.00
20180619063957 78 252 0.0 0.0 0.00 0.00 0.00
20180619063456 78 252 0.0 0.0 0.00 0.00 0.00
20180619063035 78 252 0.0 0.0 0.00 0.00 0.00
20180619062952 78 252 0.0 0.0 0.00 0.00 0.00
20180619062452 78 252 0.0 0.0 0.00 0.00 0.00
20180619061452 78 252 0.0 0.0 0.00 0.00 0.00
20180619060449 78 252 0.0 0.0 0.00 0.00 0.00
20180619055448 79 252 0.0 0.0 0.00 0.00 0.00
20180619052522 79 218 0.0 0.0 0.00 0.00 0.00
20180619052440 79 218 0.0 0.0 0.00 0.00 0.00
20180619050939 0 0.0 0.0 0.00 0.00 0.00
20180619050937 79 218 0.0 0.0 0.00 0.00 0.00
20180619045937 79 218 0.0 0.0 0.00 0.00 0.00
20180619044724 79 218 0.0 3.0 0.00 0.00 0.00
20180619044433 79 218 0.0 3.0 0.00 0.00 0.00
20180619043933 79 197 0.0 0.0 0.00 0.00 0.00
20180619043433 79 197 0.0 0.0 0.00 0.00 0.00
20180619042430 79 210 0.0 0.0 0.00 0.00 0.00
20180619041930 79 250 1.0 0.0 0.00 0.00 0.00
20180619041430 79 221 0.0 0.0 0.00 0.00 0.00
20180619040927 79 221 2.0 0.0 0.00 0.00 0.00
20180619035426 80 152 1.0 0.0 0.00 0.00 0.00
20180619032420 78 214 1.0 0.0 0.00 0.00 0.00
20180619031544 80 201 0.0 0.0 0.00 0.00 0.00
20180619031420 80 201 0.0 0.0 0.00 0.00 0.00
20180619030006 79 255 0.0 0.0 0.00 0.00 0.00
20180619025916 79 255 0.0 0.0 0.00 0.00 0.00
20180619024913 80 156 0.0 0.0 0.00 0.00 0.00
20180619024413 80 224 0.0 0.0 0.00 0.00 0.00
20180619023613 80 231 1.0 0.0 0.00 0.00 0.00
20180619023413 80 231 1.0 0.0 0.00 0.00 0.00
20180619023049 80 197 0.0 0.0 0.00 0.00 0.00
20180619022916 80 197 0.0 0.0 0.00 0.00 0.00
20180619022910 80 197 0.0 0.0 0.00 0.00 0.00
20180619022410 80 197 0.0 0.0 0.00 0.00 0.00
20180619021910 80 225 0.0 0.0 0.00 0.00 0.00
20180619020907 80 228 0.0 0.0 0.00 0.00 0.00
20180619020405 80 228 0.0 0.0 0.00 0.00 0.00
20180619015905 81 228 0.0 0.0 0.00 0.00 0.00
20180619014749 81 284 0.0 0.0 0.00 0.00 0.00
20180619014402 81 284 0.0 0.0 0.00 0.00 0.00
20180619013902 81 240 1.0 1.0 0.00 0.00 0.00
20180619012859 81 224 1.0 1.0 0.00 0.00 0.00
20180619011858 82 225 0.0 0.0 0.00 0.00 0.00
20180619011358 81 233 2.0 0.0 0.00 0.00 0.00
20180619010855 82 233 1.0 0.0 0.00 0.00 0.00
20180619005355 82 200 0.0 3.0 0.00 0.00 0.00
20180619004852 82 231 1.0 1.0 0.00 0.00 0.00
20180619003849 83 242 1.0 0.0 0.00 0.00 0.00
20180619002846 84 221 0.0 0.0 0.00 0.00 0.00
20180619002346 83 166 1.0 0.0 0.00 0.00 0.00
20180619001845 84 176 1.0 0.0 0.00 0.00 0.00
20180619000342 85 240 4.0 0.0 0.00 0.00 0.00
20180618235842 86 248 2.0 4.0 0.00 0.00 0.00
20180618235341 86 256 0.0 0.0 0.00 0.00 0.00
20180618234838 85 190 2.0 3.0 0.00 0.00 0.00
20180618234338 86 217 0.0 2.0 0.00 0.00 0.00
20180618233337 87 253 4.0 0.0 0.00 0.00 0.00
20180618232834 89 224 0.0 0.0 0.00 0.00 0.00
20180618232334 87 264 1.0 2.0 0.00 0.00 0.00
20180618231333 87 245 3.0 0.0 0.00 0.00 0.00
20180618230830 87 295 1.0 0.0 0.00 0.00 0.00
20180618225829 89 200 5.0 4.0 0.00 0.00 0.00
20180618225328 90 249 1.0 2.0 0.00 0.00 0.00
20180618223824 94 221 2.0 3.0 0.00 0.00 0.00
20180618222821 97 246 0.0 0.0 0.00 0.00 0.00
20180618222320 98 263 2.0 3.0 0.00 0.00 0.00
20180618221820 99 274 3.0 0.0 0.00 0.00 0.00
20180618221320 100 221 2.0 4.0 0.00 0.00 0.00
20180618220316 102 259 2.0 2.0 0.00 0.00 0.00
20180618215816 101 233 0.0 0.0 0.00 0.00 0.00
20180618214312 97 145 4.0 2.0 0.00 0.00 0.00
20180618213812 97 231 3.0 3.0 0.00 0.00 0.00
20180618212808 96 264 4.0 3.0 0.00 0.00 0.00
20180618212307 97 186 1.0 7.0 0.00 0.00 0.00
20180618211806 97 188 2.0 6.0 0.00 0.00 0.00
20180618211306 96 221 5.0 4.0 0.00 0.00 0.00
20180618210302 94 250 2.0 2.0 0.00 0.00 0.00
20180618205802 96 228 1.0 3.0 0.00 0.00 0.00
20180618205302 96 273 1.0 0.0 0.00 0.00 0.00
20180618204759 94 235 0.0 2.0 0.00 0.00 0.00
20180618203758 94 245 4.0 0.0 0.00 0.00 0.00
20180618202754 94 183 4.0 1.0 0.00 0.00 0.00
20180618201253 94 214 0.0 2.0 0.00 0.00 0.00
20180618200750 93 316 5.0 1.0 0.00 0.00 0.00
20180618200250 93 215 5.0 4.0 0.00 0.00 0.00
20180618195750 94 205 3.0 4.0 0.00 0.00 0.00
20180618193245 94 274 0.0 0.0 0.00 0.00 0.00
20180618192742 94 290 0.0 2.0 0.00 0.00 0.00
20180618192241 93 321 5.0 3.0 0.00 0.00 0.00
20180618191741 94 260 3.0 3.0 0.00 0.00 0.00
20180618191241 94 276 2.0 3.0 0.00 0.00 0.00
20180618190737 94 217 0.0 4.0 0.00 0.00 0.00
20180618190237 93 302 1.0 0.0 0.00 0.00 0.00
20180618185737 93 270 5.0 5.0 0.00 0.00 0.00
20180618185234 94 243 0.0 4.0 0.00 0.00 0.00
20180618184231 93 250 3.0 5.0 0.00 0.00 0.00
20180618183731 93 243 0.0 0.0 0.00 0.00 0.00
20180618182726 94 221 2.0 0.0 0.00 0.00 0.00
20180618182226 94 18 1.0 0.0 0.00 0.00 0.00
20180618181225 94 253 1.0 1.0 0.00 0.00 0.00
20180618180721 94 295 1.0 1.0 0.00 0.00 0.00
20180618180220 93 267 1.0 2.0 0.00 0.00 0.00
20180618175720 94 23 0.0 0.0 0.00 0.00 0.00
20180618175220 93 7 3.0 3.0 0.00 0.00 0.00
20180618174717 94 228 0.0 0.0 0.00 0.00 0.00
20180618174216 94 228 1.0 0.0 0.00 0.00 0.00
20180618172712 93 245 2.0 1.0 0.00 0.00 0.00
20180618171711 93 284 1.0 1.0 0.00 0.00 0.00
20180618170207 93 10 0.0 1.0 0.00 0.00 0.00
20180618165207 92 308 1.0 3.0 0.00 0.00 0.00
20180618164704 92 245 2.0 2.0 0.00 0.00 0.00
20180618163703 92 142 2.0 3.0 0.00 0.00 0.00
20180618162700 91 315 1.0 0.0 0.00 0.00 0.00
20180618162200 91 240 0.0 0.0 0.00 0.00 0.00
20180618161659 89 278 1.0 1.0 0.00 0.00 0.00
20180618161159 91 245 0.0 0.0 0.00 0.00 0.00
20180618160656 90 274 2.0 0.0 0.00 0.00 0.00
20180618155656 89 295 0.0 0.0 0.00 0.00 0.00
20180618154652 89 325 1.0 3.0 0.00 0.00 0.00
20180618154152 89 273 0.0 0.0 0.00 0.00 0.00
20180618153652 88 273 0.0 0.0 0.00 0.00 0.00
20180618153151 88 273 0.0 0.0 0.00 0.00 0.00
20180618150144 88 160 0.0 0.0 0.00 0.00 0.00
20180618145645 87 218 0.0 0.0 0.00 0.00 0.00
20180618144641 86 219 1.0 0.0 0.00 0.00 0.00
20180618144140 86 217 1.0 2.0 0.00 0.00 0.00
20180618143640 86 248 3.0 2.0 0.00 0.00 0.00
20180618142137 86 156 3.0 4.0 0.00 0.00 0.00
20180618141637 85 165 4.0 5.0 0.00 0.00 0.00
20180618141136 86 195 3.0 4.0 0.00 0.00 0.00